Time;durP1;ratioP1;P1;durP2;ratioP2;P2;SDS_P1;SDS_P2;PMS_P1;PMS_P2;Temp;Humidity;BMP_temperature;BMP_pressure;BME280_temperature;BME280_humidity;BME280_pressure;Samples;Min_cycle;Max_cycle;Signal;HPM_P1;HPM_P2
2022/06/08 00:00:15;;;;;;;2.20;2.00;;;-40.00;99.90;;;;;;5135372;27;20161;-68
2022/06/08 00:02:44;;;;;;;2.23;2.00;;;-40.00;99.90;;;;;;5135379;27;20640;-77
2022/06/08 00:05:10;;;;;;;2.33;2.10;;;-40.00;99.90;;;;;;5135320;27;20539;-70
2022/06/08 00:07:36;;;;;;;5.70;2.00;;;-40.00;99.90;;;;;;5136441;27;20545;-74
2022/06/08 00:10:04;;;;;;;6.40;2.27;;;-40.00;99.90;;;;;;5136274;27;20232;-68
2022/06/08 00:12:30;;;;;;;2.30;2.20;;;-40.00;99.90;;;;;;5136463;27;20474;-74
2022/06/08 00:14:56;;;;;;;2.43;2.23;;;-40.00;99.90;;;;;;5136054;28;20217;-68
2022/06/08 00:17:22;;;;;;;2.83;2.30;;;-40.00;99.90;;;;;;5136465;27;20188;-69
2022/06/08 00:19:48;;;;;;;2.30;2.00;;;-40.00;99.90;;;;;;5136243;27;20165;-69
2022/06/08 00:22:14;;;;;;;3.10;2.10;;;-40.00;99.90;;;;;;5136333;27;20580;-69
2022/06/08 00:24:40;;;;;;;3.17;2.57;;;-40.00;99.90;;;;;;5136352;27;20207;-68
2022/06/08 00:27:07;;;;;;;3.07;2.60;;;-40.00;99.90;;;;;;5136475;27;20467;-68
2022/06/08 00:29:33;;;;;;;1.77;1.67;;;-40.00;99.90;;;;;;5135932;27;20185;-68
2022/06/08 00:31:59;;;;;;;2.53;2.27;;;-40.00;99.90;;;;;;5136417;27;20161;-68
2022/06/08 00:34:25;;;;;;;2.93;1.43;;;-40.00;99.90;;;;;;5136193;27;20561;-70
2022/06/08 00:36:50;;;;;;;4.97;2.20;;;-40.00;99.90;;;;;;5136228;27;20230;-68
2022/06/08 00:39:16;;;;;;;3.63;2.87;;;-40.00;99.90;;;;;;5135058;28;20172;-68
2022/06/08 00:41:47;;;;;;;3.63;2.50;;;-40.00;99.90;;;;;;5136341;27;20169;-74
2022/06/08 00:44:39;;;;;;;3.67;2.10;;;-40.00;99.90;;;;;;5135928;27;20501;-71
2022/06/08 00:47:07;;;;;;;7.80;2.70;;;-40.00;99.90;;;;;;5127255;28;20181;-71
2022/06/08 00:49:40;;;;;;;2.70;1.90;;;-40.00;99.90;;;;;;5135988;27;20604;-69
2022/06/08 00:52:07;;;;;;;2.23;2.10;;;-40.00;99.90;;;;;;5136231;27;20568;-68
2022/06/08 00:54:42;;;;;;;2.47;2.27;;;-40.00;99.90;;;;;;5136145;27;20171;-73
2022/06/08 00:57:19;;;;;;;4.40;2.83;;;-40.00;99.90;;;;;;5136123;27;20196;-69
2022/06/08 01:00:15;;;;;;;2.03;1.93;;;-40.00;99.90;;;;;;5135609;27;20568;-68
2022/06/08 01:02:41;;;;;;;3.83;2.57;;;-40.00;99.90;;;;;;5133749;28;20189;-68
2022/06/08 01:05:25;;;;;;;5.70;3.00;;;-40.00;99.90;;;;;;5135756;27;20218;-72
2022/06/08 01:07:54;;;;;;;2.93;2.27;;;-40.00;99.90;;;;;;5134711;27;20177;-69
2022/06/08 01:10:27;;;;;;;7.57;2.57;;;-40.00;99.90;;;;;;5135729;27;20235;-69
2022/06/08 01:12:53;;;;;;;3.67;2.53;;;-40.00;99.90;;;;;;5139475;27;20225;-70
2022/06/08 01:15:23;;;;;;;2.67;2.47;;;-40.00;99.90;;;;;;5139622;27;20208;-68
2022/06/08 01:17:49;;;;;;;2.70;2.50;;;-40.00;99.90;;;;;;5139733;27;20201;-69
2022/06/08 01:20:15;;;;;;;8.23;2.87;;;-40.00;99.90;;;;;;5139320;27;20189;-68
2022/06/08 01:22:41;;;;;;;2.50;2.30;;;-40.00;99.90;;;;;;5138367;27;20251;-68
2022/06/08 01:25:09;;;;;;;9.43;2.97;;;-40.00;99.90;;;;;;5139497;27;20176;-69
2022/06/08 01:27:37;;;;;;;2.53;2.33;;;-40.00;99.90;;;;;;5138192;27;20664;-68
2022/06/08 01:30:12;;;;;;;2.80;2.60;;;-40.00;99.90;;;;;;5139222;27;20192;-69
2022/06/08 01:32:58;;;;;;;2.37;2.27;;;-40.00;99.90;;;;;;5139436;27;20164;-68
2022/06/08 01:35:47;;;;;;;3.97;2.37;;;-40.00;99.90;;;;;;5117371;27;20238;-69
2022/06/08 01:38:40;;;;;;;2.80;2.60;;;-40.00;99.90;;;;;;5139264;27;20170;-69
2022/06/08 01:41:21;;;;;;;3.03;2.73;;;-40.00;99.90;;;;;;5139189;27;20161;-72
2022/06/08 01:43:53;;;;;;;2.37;2.20;;;-40.00;99.90;;;;;;5139155;27;20239;-67
2022/06/08 01:46:38;;;;;;;2.87;2.30;;;-40.00;99.90;;;;;;5138986;27;20169;-70
2022/06/08 01:49:22;;;;;;;3.60;2.07;;;-40.00;99.90;;;;;;5139033;27;20264;-68
2022/06/08 01:52:11;;;;;;;2.03;1.93;;;-40.00;99.90;;;;;;5138894;27;20165;-68
2022/06/08 01:55:05;;;;;;;3.27;2.67;;;-40.00;99.90;;;;;;5139116;27;20165;-68
2022/06/08 01:57:50;;;;;;;4.03;2.40;;;-40.00;99.90;;;;;;5138485;27;20165;-75
2022/06/08 02:00:23;;;;;;;2.53;2.30;;;-40.00;99.90;;;;;;5138876;27;20168;-68
2022/06/08 02:03:11;;;;;;;2.73;2.53;;;-40.00;99.90;;;;;;5138567;27;20189;-67
2022/06/08 02:06:01;;;;;;;5.10;2.73;;;-40.00;99.90;;;;;;5138735;27;20536;-81
2022/06/08 02:08:42;;;;;;;10.77;3.23;;;-40.00;99.90;;;;;;5138645;27;20176;-80
2022/06/08 02:11:12;;;;;;;3.20;2.90;;;-40.00;99.90;;;;;;5138457;27;20460;-79
2022/06/08 02:14:00;;;;;;;4.93;2.83;;;-40.00;99.90;;;;;;5137821;27;20598;-80
2022/06/08 02:16:52;;;;;;;8.97;3.60;;;-40.00;99.90;;;;;;5138649;27;20172;-80
2022/06/08 02:19:42;;;;;;;3.07;2.87;;;-40.00;99.90;;;;;;5138570;27;20229;-68
2022/06/08 02:22:19;;;;;;;5.50;3.77;;;-40.00;99.90;;;;;;5137768;27;20595;-69
2022/06/08 02:24:51;;;;;;;4.47;3.23;;;-40.00;99.90;;;;;;5138184;27;20172;-68
2022/06/08 02:27:38;;;;;;;4.27;3.77;;;-40.00;99.90;;;;;;5138458;27;20169;-69
2022/06/08 02:30:03;;;;;;;4.33;4.03;;;-40.00;99.90;;;;;;5138220;27;20207;-71
2022/06/08 02:35:27;;;;;;;4.60;3.90;;;-40.00;99.90;;;;;;5137935;27;20595;-69
2022/06/08 02:37:58;;;;;;;4.17;3.87;;;-40.00;99.90;;;;;;5136987;27;20179;-73
2022/06/08 02:40:28;;;;;;;4.63;3.40;;;-40.00;99.90;;;;;;5136575;27;20222;-68
2022/06/08 02:43:00;;;;;;;6.40;3.70;;;-40.00;99.90;;;;;;5136724;27;20173;-68
2022/06/08 02:45:44;;;;;;;4.17;3.77;;;-40.00;99.90;;;;;;5137855;27;20568;-70
2022/06/08 02:48:13;;;;;;;4.63;3.67;;;-40.00;99.90;;;;;;5137801;27;20174;-73
2022/06/08 02:50:56;;;;;;;8.30;3.30;;;-40.00;99.90;;;;;;5137771;27;20284;-68
2022/06/08 02:53:22;;;;;;;4.60;3.77;;;-40.00;99.90;;;;;;5137683;27;20218;-69
2022/06/08 02:55:51;;;;;;;5.97;4.10;;;-40.00;99.90;;;;;;5136263;27;20634;-74
2022/06/08 02:58:24;;;;;;;4.33;3.90;;;-40.00;99.90;;;;;;5136354;27;20169;-69
2022/06/08 03:01:00;;;;;;;6.23;4.00;;;-40.00;99.90;;;;;;5137567;27;20172;-72
2022/06/08 03:03:48;;;;;;;5.00;3.47;;;-40.00;99.90;;;;;;5136426;27;20260;-73
2022/06/08 03:06:19;;;;;;;5.50;4.07;;;-40.00;99.90;;;;;;5137309;27;20245;-71
2022/06/08 03:08:54;;;;;;;4.20;3.90;;;-40.00;99.90;;;;;;5136854;27;20649;-74
2022/06/08 03:11:23;;;;;;;5.17;4.50;;;-40.00;99.90;;;;;;5137456;27;20244;-71
2022/06/08 03:13:51;;;;;;;4.23;3.50;;;-40.00;99.90;;;;;;5137256;27;20580;-74
2022/06/08 03:16:30;;;;;;;10.63;4.40;;;-40.00;99.90;;;;;;5137410;27;20161;-69
2022/06/08 03:18:56;;;;;;;3.93;3.53;;;-40.00;99.90;;;;;;5135933;27;20467;-75
2022/06/08 03:21:22;;;;;;;5.23;3.53;;;-40.00;99.90;;;;;;5137265;27;20166;-68
2022/06/08 03:23:49;;;;;;;13.47;4.63;;;-40.00;99.90;;;;;;5136857;27;20222;-69
2022/06/08 03:26:17;;;;;;;5.00;3.67;;;-40.00;99.90;;;;;;5137133;27;20197;-72
2022/06/08 03:28:43;;;;;;;4.80;3.50;;;-40.00;99.90;;;;;;5136968;27;20176;-71
2022/06/08 03:31:09;;;;;;;3.50;3.30;;;-40.00;99.90;;;;;;5137037;27;20197;-73
2022/06/08 03:33:35;;;;;;;9.43;3.90;;;-40.00;99.90;;;;;;5136727;27;20206;-69
2022/06/08 03:36:01;;;;;;;5.07;3.53;;;-40.00;99.90;;;;;;5135783;27;20185;-72
2022/06/08 03:38:27;;;;;;;3.53;3.23;;;-40.00;99.90;;;;;;5136399;27;20161;-70
2022/06/08 03:40:53;;;;;;;4.13;3.80;;;-40.00;99.90;;;;;;5136885;27;20158;-72
2022/06/08 03:43:19;;;;;;;2.70;2.50;;;-40.00;99.90;;;;;;5136813;27;20161;-70
2022/06/08 03:45:49;;;;;;;2.67;2.53;;;-40.00;99.90;;;;;;5136908;27;20165;-68
2022/06/08 03:48:16;;;;;;;4.00;3.57;;;-40.00;99.90;;;;;;5136551;27;20190;-70
2022/06/08 03:50:44;;;;;;;5.63;2.97;;;-40.00;99.90;;;;;;5136746;27;20200;-69
2022/06/08 03:53:17;;;;;;;5.13;3.23;;;-40.00;99.90;;;;;;5136431;27;20464;-76
2022/06/08 03:55:46;;;;;;;7.07;2.87;;;-40.00;99.90;;;;;;5136769;27;20158;-74
2022/06/08 03:58:13;;;;;;;9.27;3.50;;;-40.00;99.90;;;;;;5136398;27;20266;-71
2022/06/08 04:00:41;;;;;;;3.73;3.20;;;-40.00;99.90;;;;;;5135551;27;20519;-74
2022/06/08 04:03:09;;;;;;;3.80;3.13;;;-40.00;99.90;;;;;;5136594;27;20583;-72
2022/06/08 04:05:35;;;;;;;2.80;2.60;;;-40.00;99.90;;;;;;5136455;27;20599;-69
2022/06/08 04:08:03;;;;;;;3.87;3.00;;;-40.00;99.90;;;;;;5135139;27;20215;-69
2022/06/08 04:10:30;;;;;;;2.93;2.53;;;-40.00;99.90;;;;;;5136056;27;20201;-69
2022/06/08 04:12:55;;;;;;;3.73;3.30;;;-40.00;99.90;;;;;;5136362;27;20173;-69
2022/06/08 04:18:06;;;;;;;4.10;2.93;;;-40.00;99.90;;;;;;5136649;28;20774;-69
2022/06/08 04:20:34;;;;;;;3.40;3.10;;;-40.00;99.90;;;;;;5136349;27;20189;-69
2022/06/08 04:23:00;;;;;;;2.97;2.77;;;-40.00;99.90;;;;;;5136083;27;20218;-69
2022/06/08 04:25:26;;;;;;;9.67;2.87;;;-40.00;99.90;;;;;;5136364;27;20177;-71
2022/06/08 04:27:53;;;;;;;2.80;2.50;;;-40.00;99.90;;;;;;5136237;28;20521;-69
2022/06/08 04:30:19;;;;;;;4.80;2.67;;;-40.00;99.90;;;;;;5136043;27;20193;-68
2022/06/08 04:32:45;;;;;;;4.87;3.17;;;-40.00;99.90;;;;;;5136271;27;20185;-69
2022/06/08 04:35:12;;;;;;;4.77;2.83;;;-40.00;99.90;;;;;;5135642;27;20165;-71
2022/06/08 04:37:38;;;;;;;3.53;2.13;;;-40.00;99.90;;;;;;5136434;27;20161;-68
2022/06/08 04:40:10;;;;;;;6.03;2.50;;;-40.00;99.90;;;;;;5136101;27;20584;-67
2022/06/08 04:42:36;;;;;;;5.77;2.23;;;-40.00;99.90;;;;;;5136174;27;20246;-74
2022/06/08 04:45:04;;;;;;;2.50;2.40;;;-40.00;99.90;;;;;;5136135;27;20261;-69
2022/06/08 04:47:30;;;;;;;3.43;2.53;;;-40.00;99.90;;;;;;5140134;27;20165;-73
2022/06/08 04:49:55;;;;;;;6.53;2.60;;;-40.00;99.90;;;;;;5139733;27;20648;-71
2022/06/08 04:52:21;;;;;;;4.37;2.17;;;-40.00;99.90;;;;;;5140247;27;20195;-73
2022/06/08 04:54:47;;;;;;;3.10;2.43;;;-40.00;99.90;;;;;;5140025;27;20174;-72
2022/06/08 04:57:13;;;;;;;2.13;1.97;;;-40.00;99.90;;;;;;5140021;27;20169;-71
2022/06/08 04:59:40;;;;;;;4.17;2.30;;;-40.00;99.90;;;;;;5138825;27;20577;-73
2022/06/08 05:02:07;;;;;;;5.37;3.17;;;-40.00;99.90;;;;;;5139873;27;20218;-75
2022/06/08 05:04:32;;;;;;;3.03;2.37;;;-40.00;99.90;;;;;;5139646;27;20244;-72
2022/06/08 05:06:58;;;;;;;4.60;2.43;;;-40.00;99.90;;;;;;5139984;27;20252;-74
2022/06/08 05:09:25;;;;;;;9.53;2.43;;;-40.00;99.90;;;;;;5139787;27;20196;-70
2022/06/08 05:11:51;;;;;;;9.93;2.37;;;-40.00;99.90;;;;;;5139991;27;20172;-69
2022/06/08 05:14:16;;;;;;;2.43;1.77;;;-40.00;99.90;;;;;;5139787;27;20162;-68
2022/06/08 05:16:43;;;;;;;2.93;2.20;;;-40.00;99.90;;;;;;5139628;27;20161;-69
2022/06/08 05:19:09;;;;;;;7.10;3.00;;;-40.00;99.90;;;;;;5139617;27;20612;-76
2022/06/08 05:21:35;;;;;;;2.70;2.30;;;-40.00;99.90;;;;;;5138487;27;20170;-73
2022/06/08 05:24:00;;;;;;;5.13;2.33;;;-40.00;99.90;;;;;;5139854;27;20197;-70
2022/06/08 05:26:26;;;;;;;3.60;2.03;;;-40.00;99.90;;;;;;5139583;27;20200;-70
2022/06/08 05:28:52;;;;;;;2.60;1.93;;;-40.00;99.90;;;;;;5139587;27;20161;-69
2022/06/08 05:31:18;;;;;;;7.50;2.50;;;-40.00;99.90;;;;;;5139898;27;20162;-72
2022/06/08 05:33:44;;;;;;;5.47;2.53;;;-40.00;99.90;;;;;;5138962;27;20192;-68
2022/06/08 05:36:10;;;;;;;3.90;2.60;;;-40.00;99.90;;;;;;5137758;27;20604;-70
2022/06/08 05:38:37;;;;;;;2.80;1.90;;;-40.00;99.90;;;;;;5134328;27;20177;-74
2022/06/08 05:41:03;;;;;;;7.80;2.73;;;-40.00;99.90;;;;;;5137894;27;20189;-69
2022/06/08 05:43:29;;;;;;;8.73;3.10;;;-40.00;99.90;;;;;;5138443;27;20260;-71
2022/06/08 05:45:55;;;;;;;4.20;2.67;;;-40.00;99.90;;;;;;5138907;27;20177;-69
2022/06/08 05:48:21;;;;;;;8.17;2.23;;;-40.00;99.90;;;;;;5137624;27;20225;-77
2022/06/08 05:50:47;;;;;;;11.60;2.77;;;-40.00;99.90;;;;;;5136848;27;20660;-76
2022/06/08 05:53:14;;;;;;;6.23;2.27;;;-40.00;99.90;;;;;;5137866;27;20271;-75
2022/06/08 05:55:41;;;;;;;3.90;2.40;;;-40.00;99.90;;;;;;5138255;27;20173;-71
2022/06/08 05:58:07;;;;;;;4.03;1.70;;;-40.00;99.90;;;;;;5138006;27;20185;-72
2022/06/08 06:00:35;;;;;;;3.90;1.40;;;-40.00;99.90;;;;;;5137778;27;20219;-73
2022/06/08 06:03:01;;;;;;;3.70;1.90;;;-40.00;99.90;;;;;;5136695;27;20700;-76
2022/06/08 06:05:30;;;;;;;9.73;7.10;;;-40.00;99.90;;;;;;5114332;27;20868;-75
2022/06/08 06:07:57;;;;;;;10.30;2.90;;;-40.00;99.90;;;;;;5131981;27;20216;-77
2022/06/08 06:10:25;;;;;;;6.47;2.87;;;-40.00;99.90;;;;;;5133713;27;20543;-69
2022/06/08 06:12:54;;;;;;;8.50;2.93;;;-40.00;99.90;;;;;;5133215;27;20177;-75
2022/06/08 06:15:22;;;;;;;8.57;3.20;;;-40.00;99.90;;;;;;5123439;27;20169;-74
2022/06/08 06:17:47;;;;;;;12.07;3.67;;;-40.00;99.90;;;;;;5134587;27;20616;-71
2022/06/08 06:20:13;;;;;;;5.50;3.70;;;-40.00;99.90;;;;;;5134192;27;20195;-69
2022/06/08 06:22:39;;;;;;;6.13;3.00;;;-40.00;99.90;;;;;;5134813;27;20221;-72
2022/06/08 06:25:06;;;;;;;5.43;2.40;;;-40.00;99.90;;;;;;5133807;27;20229;-71
2022/06/08 06:27:32;;;;;;;5.37;2.63;;;-40.00;99.90;;;;;;5133978;27;20173;-70
2022/06/08 06:29:58;;;;;;;6.67;2.70;;;-40.00;99.90;;;;;;5134607;27;20267;-71
2022/06/08 06:32:31;;;;;;;5.47;3.10;;;-40.00;99.90;;;;;;5134234;27;20192;-69
2022/06/08 06:34:58;;;;;;;8.47;2.20;;;-40.00;99.90;;;;;;5134468;27;20304;-73
2022/06/08 06:37:26;;;;;;;6.00;2.67;;;-40.00;99.90;;;;;;5134147;27;20196;-71
2022/06/08 06:39:52;;;;;;;5.73;2.80;;;-40.00;99.90;;;;;;5133346;27;20238;-69
2022/06/08 06:42:23;;;;;;;6.60;2.70;;;-40.00;99.90;;;;;;5134061;27;20173;-69
2022/06/08 06:44:51;;;;;;;8.83;3.50;;;-40.00;99.90;;;;;;5134011;27;20177;-69
2022/06/08 06:47:17;;;;;;;6.40;3.80;;;-40.00;99.90;;;;;;5133646;27;20619;-69
2022/06/08 06:49:44;;;;;;;11.27;3.20;;;-40.00;99.90;;;;;;5133701;27;20213;-69
2022/06/08 06:52:12;;;;;;;10.93;4.20;;;-40.00;99.90;;;;;;5133983;27;20200;-73
2022/06/08 06:54:38;;;;;;;13.37;4.30;;;-40.00;99.90;;;;;;5134319;27;20173;-71
2022/06/08 06:57:05;;;;;;;8.87;3.60;;;-40.00;99.90;;;;;;5132610;27;20180;-69
2022/06/08 06:59:32;;;;;;;4.33;2.77;;;-40.00;99.90;;;;;;5134556;27;20204;-72
2022/06/08 07:01:57;;;;;;;15.17;3.10;;;-40.00;99.90;;;;;;5133560;27;20648;-71
2022/06/08 07:04:23;;;;;;;6.37;4.00;;;-40.00;99.90;;;;;;5133172;27;20192;-74
2022/06/08 07:06:49;;;;;;;2.93;2.60;;;-40.00;99.90;;;;;;5132933;27;20604;-71
2022/06/08 07:09:15;;;;;;;5.53;4.27;;;-40.00;99.90;;;;;;5131847;27;20220;-68
2022/06/08 07:11:41;;;;;;;8.70;2.50;;;-40.00;99.90;;;;;;5132642;27;20177;-68
2022/06/08 07:14:17;;;;;;;12.20;3.20;;;-40.00;99.90;;;;;;5132931;27;20173;-70
2022/06/08 07:16:45;;;;;;;6.83;3.37;;;-40.00;99.90;;;;;;5133118;27;20169;-72
2022/06/08 07:19:11;;;;;;;8.00;3.83;;;-40.00;99.90;;;;;;5132339;27;20176;-74
2022/06/08 07:21:38;;;;;;;8.70;3.57;;;-40.00;99.90;;;;;;5132826;27;20169;-71
2022/06/08 07:24:04;;;;;;;5.33;3.10;;;-40.00;99.90;;;;;;5133628;27;20204;-69
2022/06/08 07:26:30;;;;;;;4.37;2.83;;;-40.00;99.90;;;;;;5133989;27;20161;-69
2022/06/08 07:28:56;;;;;;;11.37;3.57;;;-40.00;99.90;;;;;;5132750;27;20161;-74
2022/06/08 07:31:24;;;;;;;12.63;4.83;;;-40.00;99.90;;;;;;5133081;27;20212;-73
2022/06/08 07:33:50;;;;;;;6.90;3.20;;;-40.00;99.90;;;;;;5132870;27;20576;-71
2022/06/08 07:36:16;;;;;;;5.77;2.90;;;-40.00;99.90;;;;;;5132871;27;20193;-77
2022/06/08 07:38:43;;;;;;;5.63;3.13;;;-40.00;99.90;;;;;;5133199;27;20226;-71
2022/06/08 07:41:08;;;;;;;7.57;3.87;;;-40.00;99.90;;;;;;5132777;27;20206;-73
2022/06/08 07:43:35;;;;;;;7.73;3.53;;;-40.00;99.90;;;;;;5132398;27;20181;-70
2022/06/08 07:46:00;;;;;;;5.93;2.40;;;-40.00;99.90;;;;;;5131692;27;20181;-67
2022/06/08 07:51:11;;;;;;;21.53;4.63;;;-40.00;99.90;;;;;;5133293;27;20218;-74
2022/06/08 07:53:37;;;;;;;8.70;4.83;;;-40.00;99.90;;;;;;5132432;27;20173;-71
2022/06/08 07:56:03;;;;;;;12.33;3.93;;;-40.00;99.90;;;;;;5133485;27;20177;-72
2022/06/08 07:58:29;;;;;;;8.10;3.30;;;-40.00;99.90;;;;;;5133126;27;20173;-73
2022/06/08 08:00:57;;;;;;;7.10;3.03;;;-40.00;99.90;;;;;;5133032;27;20528;-68
2022/06/08 08:03:23;;;;;;;10.70;3.70;;;-40.00;99.90;;;;;;5132087;27;20656;-70
2022/06/08 08:05:50;;;;;;;7.93;4.83;;;-40.00;99.90;;;;;;5132620;27;20185;-70
2022/06/08 08:08:17;;;;;;;11.30;4.67;;;-40.00;99.90;;;;;;5133145;27;20200;-72
2022/06/08 08:10:44;;;;;;;8.53;4.13;;;-40.00;99.90;;;;;;5132337;27;20569;-72
2022/06/08 08:13:11;;;;;;;12.87;4.00;;;-40.00;99.90;;;;;;5133136;27;20177;-75
2022/06/08 08:15:38;;;;;;;9.23;3.37;;;-40.00;99.90;;;;;;5132599;27;20252;-71
2022/06/08 08:18:04;;;;;;;12.77;4.07;;;-40.00;99.90;;;;;;5131779;28;20238;-71
2022/06/08 08:20:31;;;;;;;16.87;5.07;;;-40.00;99.90;;;;;;5133734;27;20173;-72
2022/06/08 08:22:58;;;;;;;19.33;4.73;;;-40.00;99.90;;;;;;5137401;27;20188;-71
2022/06/08 08:25:25;;;;;;;11.87;4.97;;;-40.00;99.90;;;;;;5137172;27;20597;-71
2022/06/08 08:27:51;;;;;;;15.50;4.83;;;-40.00;99.90;;;;;;5136446;27;20449;-71
2022/06/08 08:30:20;;;;;;;13.50;5.83;;;-40.00;99.90;;;;;;5136993;27;20209;-71
2022/06/08 08:32:46;;;;;;;9.60;4.40;;;-40.00;99.90;;;;;;5136738;27;20184;-68
2022/06/08 08:35:14;;;;;;;12.87;4.23;;;-40.00;99.90;;;;;;5140001;27;20189;-71
2022/06/08 08:37:40;;;;;;;9.93;4.87;;;-40.00;99.90;;;;;;5136072;27;20714;-69
2022/06/08 08:40:15;;;;;;;6.50;4.07;;;-40.00;99.90;;;;;;5136468;27;20180;-69
2022/06/08 08:42:41;;;;;;;10.23;4.40;;;-40.00;99.90;;;;;;5136065;27;20261;-75
2022/06/08 08:45:12;;;;;;;10.67;4.60;;;-40.00;99.90;;;;;;5136392;27;20173;-71
2022/06/08 08:47:55;;;;;;;10.57;4.23;;;-40.00;99.90;;;;;;5134181;27;20169;-72
2022/06/08 08:50:23;;;;;;;8.73;4.83;;;-40.00;99.90;;;;;;5136694;27;20304;-80
2022/06/08 08:52:51;;;;;;;6.70;5.20;;;-40.00;99.90;;;;;;5137481;27;20181;-80
2022/06/08 08:55:27;;;;;;;6.70;4.77;;;-40.00;99.90;;;;;;5136249;27;20173;-77
2022/06/08 08:58:19;;;;;;;9.90;5.60;;;-40.00;99.90;;;;;;5135970;27;20177;-85
2022/06/08 09:00:58;;;;;;;11.50;4.63;;;-40.00;99.90;;;;;;5135651;27;20181;-89
2022/06/08 09:03:43;;;;;;;14.13;4.83;;;-40.00;99.90;;;;;;5135997;27;20195;-80
2022/06/08 09:06:13;;;;;;;7.10;4.30;;;-40.00;99.90;;;;;;5136088;27;20238;-80
2022/06/08 09:08:43;;;;;;;10.33;5.57;;;-40.00;99.90;;;;;;5136158;27;20201;-76
2022/06/08 09:11:24;;;;;;;7.40;4.47;;;-40.00;99.90;;;;;;5136455;27;20189;-83
2022/06/08 09:13:58;;;;;;;12.67;5.10;;;-40.00;99.90;;;;;;5136827;27;20184;-79
2022/06/08 09:16:39;;;;;;;8.13;4.37;;;-40.00;99.90;;;;;;5136461;27;20602;-79
2022/06/08 09:19:46;;;;;;;7.80;4.33;;;-40.00;99.90;;;;;;5135147;27;20165;-73
2022/06/08 09:22:13;;;;;;;8.70;4.10;;;-40.00;99.90;;;;;;5125269;27;20272;-72
2022/06/08 09:24:41;;;;;;;8.03;4.90;;;-40.00;99.90;;;;;;5135050;27;20591;-71
2022/06/08 09:27:22;;;;;;;12.13;3.73;;;-40.00;99.90;;;;;;5132381;27;20177;-81
2022/06/08 09:29:56;;;;;;;4.63;3.80;;;-40.00;99.90;;;;;;5135820;27;20245;-81
2022/06/08 09:32:33;;;;;;;7.10;4.43;;;-40.00;99.90;;;;;;5135387;27;20544;-84
2022/06/08 09:35:20;;;;;;;6.23;3.33;;;-40.00;99.90;;;;;;5135431;27;20177;-86
2022/06/08 09:37:49;;;;;;;6.10;4.00;;;-40.00;99.90;;;;;;5137735;27;20193;-83
2022/06/08 09:40:38;;;;;;;5.17;3.67;;;-40.00;99.90;;;;;;5139354;27;20169;-79
2022/06/08 09:43:26;;;;;;;12.07;4.00;;;-40.00;99.90;;;;;;5135241;27;20185;-68
2022/06/08 09:46:07;;;;;;;5.00;3.97;;;-40.00;99.90;;;;;;5134573;27;20184;-70
2022/06/08 09:51:56;;;;;;;6.30;3.83;;;-40.00;99.90;;;;;;5136045;27;20193;-84
2022/06/08 09:54:31;;;;;;;6.77;3.63;;;-40.00;99.90;;;;;;5125584;27;20197;-82
2022/06/08 09:57:30;;;;;;;6.77;3.57;;;-40.00;99.90;;;;;;5136635;27;20185;-80
2022/06/08 10:00:10;;;;;;;7.00;3.83;;;-40.00;99.90;;;;;;5134911;27;20186;-78
2022/06/08 10:03:00;;;;;;;9.83;3.77;;;-40.00;99.90;;;;;;5142613;27;20624;-70
2022/06/08 10:05:35;;;;;;;3.83;3.20;;;-40.00;99.90;;;;;;5136493;27;20189;-77
2022/06/08 10:08:01;;;;;;;12.23;4.63;;;-40.00;99.90;;;;;;5136361;27;20173;-85
2022/06/08 10:10:38;;;;;;;4.30;3.33;;;-40.00;99.90;;;;;;5135961;27;20205;-71
2022/06/08 10:13:20;;;;;;;5.93;3.20;;;-40.00;99.90;;;;;;5134436;27;20181;-83
2022/06/08 10:16:02;;;;;;;8.80;3.67;;;-40.00;99.90;;;;;;5134876;27;20588;-71
2022/06/08 10:18:43;;;;;;;4.27;3.50;;;-40.00;99.90;;;;;;5135156;27;20170;-69
2022/06/08 10:21:20;;;;;;;6.13;3.17;;;-40.00;99.90;;;;;;5133328;27;20177;-69
2022/06/08 10:24:02;;;;;;;5.23;3.57;;;-40.00;99.90;;;;;;5134927;27;20187;-79
2022/06/08 10:26:35;;;;;;;5.10;3.60;;;-40.00;99.90;;;;;;5134385;27;20188;-70
2022/06/08 10:29:16;;;;;;;5.90;3.17;;;-40.00;99.90;;;;;;5134438;27;20201;-79
2022/06/08 10:31:52;;;;;;;6.03;3.77;;;-40.00;99.90;;;;;;5134538;27;20181;-77
2022/06/08 10:34:31;;;;;;;11.50;3.43;;;-40.00;99.90;;;;;;5134877;27;20176;-68
2022/06/08 10:37:07;;;;;;;7.97;3.33;;;-40.00;99.90;;;;;;5133758;27;20939;-69
2022/06/08 10:39:35;;;;;;;6.23;3.60;;;-40.00;99.90;;;;;;5131059;27;20803;-68
2022/06/08 10:42:41;;;;;;;6.53;3.27;;;-40.00;99.90;;;;;;5136477;27;20296;-67
2022/06/08 10:45:24;;;;;;;9.27;3.00;;;-40.00;99.90;;;;;;5133719;27;20175;-68
2022/06/08 10:47:54;;;;;;;6.23;3.80;;;-40.00;99.90;;;;;;5133112;27;20184;-68
2022/06/08 10:50:42;;;;;;;8.73;3.73;;;-40.00;99.90;;;;;;5134432;27;20276;-68
2022/06/08 10:56:23;;;;;;;3.10;2.90;;;-40.00;99.90;;;;;;5134363;27;20180;-68
2022/06/08 10:59:03;;;;;;;3.30;3.07;;;-40.00;99.90;;;;;;5133829;27;20233;-71
2022/06/08 11:01:50;;;;;;;2.63;2.40;;;-40.00;99.90;;;;;;5135006;27;20515;-68
2022/06/08 11:04:32;;;;;;;6.30;2.50;;;-40.00;99.90;;;;;;5131910;27;20272;-71
2022/06/08 11:07:04;;;;;;;4.87;2.60;;;-40.00;99.90;;;;;;5132844;27;20511;-68
2022/06/08 11:09:33;;;;;;;4.33;2.97;;;-40.00;99.90;;;;;;5130624;27;20237;-68
2022/06/08 11:12:10;;;;;;;8.30;3.37;;;-40.00;99.90;;;;;;5132628;27;20173;-73
2022/06/08 11:14:48;;;;;;;4.83;3.47;;;-40.00;99.90;;;;;;5132342;27;20173;-68
2022/06/08 11:17:22;;;;;;;3.43;2.60;;;-40.00;99.90;;;;;;5133536;27;20179;-69
2022/06/08 11:19:49;;;;;;;4.77;2.83;;;-40.00;99.90;;;;;;5133279;27;20599;-69
2022/06/08 11:22:25;;;;;;;3.13;2.40;;;-40.00;99.90;;;;;;5132879;27;20238;-68
2022/06/08 11:24:55;;;;;;;2.60;2.40;;;-40.00;99.90;;;;;;5133708;27;20176;-67
2022/06/08 11:27:20;;;;;;;2.17;1.83;;;-40.00;99.90;;;;;;5133856;27;20165;-67
2022/06/08 11:29:56;;;;;;;2.03;1.83;;;-40.00;99.90;;;;;;5133321;27;20190;-69
2022/06/08 11:32:33;;;;;;;2.67;2.57;;;-40.00;99.90;;;;;;5133517;27;20177;-68
2022/06/08 11:35:33;;;;;;;7.07;2.37;;;-40.00;99.90;;;;;;5133255;27;20265;-68
2022/06/08 11:38:07;;;;;;;1.73;1.60;;;-40.00;99.90;;;;;;5132864;27;20193;-67
2022/06/08 11:40:36;;;;;;;1.63;1.63;;;-40.00;99.90;;;;;;5133430;27;20255;-68
2022/06/08 11:43:15;;;;;;;1.43;1.43;;;-40.00;99.90;;;;;;5133958;27;20215;-68
2022/06/08 11:45:46;;;;;;;3.10;2.10;;;-40.00;99.90;;;;;;5133423;27;20512;-72
2022/06/08 11:48:14;;;;;;;3.30;2.47;;;-40.00;99.90;;;;;;5133332;27;20177;-68
2022/06/08 11:51:01;;;;;;;2.00;1.90;;;-40.00;99.90;;;;;;5132701;27;20200;-69
2022/06/08 11:53:30;;;;;;;2.57;1.90;;;-40.00;99.90;;;;;;5133826;27;20489;-68
2022/06/08 11:56:02;;;;;;;2.43;1.80;;;-40.00;99.90;;;;;;5132918;27;20215;-69
2022/06/08 11:58:29;;;;;;;3.03;1.67;;;-40.00;99.90;;;;;;5133790;27;20570;-74
2022/06/08 12:01:14;;;;;;;2.40;1.80;;;-40.00;99.90;;;;;;5135134;27;20225;-70
2022/06/08 12:03:46;;;;;;;1.70;1.60;;;-40.00;99.90;;;;;;5133033;27;20177;-68
2022/06/08 12:06:22;;;;;;;1.93;1.80;;;-40.00;99.90;;;;;;5133133;27;20276;-68
2022/06/08 12:08:58;;;;;;;2.00;1.90;;;-40.00;99.90;;;;;;5132130;27;20200;-68
2022/06/08 12:11:28;;;;;;;1.40;1.40;;;-40.00;99.90;;;;;;5131511;27;20218;-67
2022/06/08 12:13:56;;;;;;;2.07;1.60;;;-40.00;99.90;;;;;;5131730;27;20202;-67
2022/06/08 12:16:35;;;;;;;2.13;2.03;;;-40.00;99.90;;;;;;5133204;27;20283;-68
2022/06/08 12:19:13;;;;;;;2.23;1.80;;;-40.00;99.90;;;;;;5133471;27;20184;-67
2022/06/08 12:21:43;;;;;;;2.23;1.67;;;-40.00;99.90;;;;;;5132838;27;20222;-68
2022/06/08 12:24:11;;;;;;;2.67;2.37;;;-40.00;99.90;;;;;;5133274;27;20198;-74
2022/06/08 12:26:55;;;;;;;2.23;2.13;;;-40.00;99.90;;;;;;5133461;27;20264;-74
2022/06/08 12:29:25;;;;;;;3.30;2.37;;;-40.00;99.90;;;;;;5134141;27;20173;-86
2022/06/08 12:32:06;;;;;;;3.33;2.63;;;-40.00;99.90;;;;;;5132282;28;20178;-83
2022/06/08 12:34:46;;;;;;;5.57;2.43;;;-40.00;99.90;;;;;;5133741;28;20220;-77
2022/06/08 12:37:28;;;;;;;3.77;2.23;;;-40.00;99.90;;;;;;5134470;28;20199;-86
2022/06/08 12:39:59;;;;;;;4.30;3.13;;;-40.00;99.90;;;;;;5133290;27;20523;-68
2022/06/08 12:42:34;;;;;;;3.83;2.40;;;-40.00;99.90;;;;;;5132917;27;20189;-68
2022/06/08 12:45:01;;;;;;;13.67;2.73;;;-40.00;99.90;;;;;;5133324;28;20483;-70
2022/06/08 12:47:38;;;;;;;8.23;2.90;;;-40.00;99.90;;;;;;5132179;28;20195;-66
2022/06/08 12:50:19;;;;;;;4.53;2.70;;;-40.00;99.90;;;;;;5132249;27;20196;-67
2022/06/08 12:52:46;;;;;;;5.47;3.27;;;-40.00;99.90;;;;;;5132093;27;20173;-68
2022/06/08 12:55:19;;;;;;;4.90;4.20;;;-40.00;99.90;;;;;;5132049;28;20272;-68
2022/06/08 12:57:46;;;;;;;7.60;3.90;;;-40.00;99.90;;;;;;5131709;27;20173;-68
2022/06/08 13:00:17;;;;;;;7.23;4.97;;;-40.00;99.90;;;;;;5131826;28;20188;-74
2022/06/08 13:02:43;;;;;;;9.47;4.03;;;-40.00;99.90;;;;;;5132311;27;20173;-69
2022/06/08 13:05:31;;;;;;;11.37;4.50;;;-40.00;99.90;;;;;;5132257;27;20486;-68
2022/06/08 13:07:59;;;;;;;14.70;5.23;;;-40.00;99.90;;;;;;5134369;27;20189;-68
2022/06/08 13:10:27;;;;;;;11.83;4.23;;;-40.00;99.90;;;;;;5135289;27;20309;-67
2022/06/08 13:12:58;;;;;;;4.60;3.93;;;-40.00;99.90;;;;;;5135973;27;20194;-67